Time;durP1;ratioP1;P1;durP2;ratioP2;P2;SDS_P1;SDS_P2;PMS_P1;PMS_P2;Temp;Humidity;BMP_temperature;BMP_pressure;BME280_temperature;BME280_humidity;BME280_pressure;Samples;Min_cycle;Max_cycle;Signal;HPM_P1;HPM_P2
2021/12/02 00:01:44;;;;;;;;;;;5.50;99.90;;;;;;4981903;28;19917;-71
2021/12/02 00:04:11;;;;;;;;;;;5.50;99.90;;;;;;4990727;28;19916;-71
2021/12/02 00:06:39;;;;;;;;;;;5.50;99.90;;;;;;4983500;28;19950;-70
2021/12/02 00:09:06;;;;;;;;;;;5.50;99.90;;;;;;4981887;28;19917;-69
2021/12/02 00:14:39;;;;;;;;;;;5.40;99.90;;;;;;4981748;28;19985;-73
2021/12/02 00:17:09;;;;;;;;;;;5.30;99.90;;;;;;4981079;28;19945;-69
2021/12/02 00:22:23;;;;;;;;;;;5.10;99.90;;;;;;5001110;28;19917;-70
2021/12/02 00:24:54;;;;;;;;;;;5.00;99.90;;;;;;4984455;28;19953;-70
2021/12/02 00:27:22;;;;;;;;;;;4.90;99.90;;;;;;5000864;28;19910;-72
2021/12/02 00:35:10;;;;;;;;;;;4.80;99.90;;;;;;5451849;23;19916;-74
2021/12/02 00:37:38;;;;;;;;;;;4.90;99.90;;;;;;5017780;28;19910;-69
2021/12/02 00:40:06;;;;;;;;;;;4.90;99.90;;;;;;5020284;28;19910;-73
2021/12/02 00:42:34;;;;;;;;;;;5.00;99.90;;;;;;4997291;28;19979;-70
2021/12/02 00:45:02;;;;;;;;;;;5.00;99.90;;;;;;5000474;28;19916;-78
2021/12/02 00:47:29;;;;;;;;;;;5.00;99.90;;;;;;5012628;28;19944;-77
2021/12/02 00:49:56;;;;;;;;;;;5.20;99.90;;;;;;5015648;28;19934;-72
2021/12/02 00:52:26;;;;;;;;;;;5.20;99.90;;;;;;5020131;28;19916;-69
2021/12/02 00:54:55;;;;;;;;;;;5.10;99.90;;;;;;5020068;28;19935;-70
2021/12/02 00:57:22;;;;;;;;;;;5.10;99.90;;;;;;5020123;28;19965;-71
2021/12/02 00:59:49;;;;;;;;;;;5.20;99.90;;;;;;5020013;28;19930;-70
2021/12/02 01:02:16;;;;;;;;;;;5.30;99.90;;;;;;5019796;28;19910;-72
2021/12/02 01:04:43;;;;;;;;;;;5.20;99.90;;;;;;5019887;28;19921;-69
2021/12/02 01:07:10;;;;;;;;;;;5.00;99.90;;;;;;5019947;28;19965;-70
2021/12/02 01:09:39;;;;;;;;;;;5.10;99.90;;;;;;5019849;28;19910;-71
2021/12/02 01:12:06;;;;;;;;;;;5.10;99.90;;;;;;5019774;28;19910;-72
2021/12/02 01:14:33;;;;;;;;;;;5.00;99.90;;;;;;5015243;28;19910;-71
2021/12/02 01:17:00;;;;;;;;;;;5.00;99.90;;;;;;5003175;28;19910;-71
2021/12/02 01:19:27;;;;;;;;;;;4.90;99.90;;;;;;5016101;28;19981;-72
2021/12/02 01:21:55;;;;;;;;;;;4.80;99.90;;;;;;5019651;28;19918;-69
2021/12/02 01:24:24;;;;;;;;;;;4.80;99.90;;;;;;5010197;28;19926;-81
2021/12/02 01:26:54;;;;;;;;;;;4.80;99.90;;;;;;5001273;28;19927;-79
2021/12/02 01:44:45;;;;;;;;;;;5.00;99.90;;;;;;5723199;23;19922;-78
2021/12/02 01:47:13;;;;;;;;;;;5.00;99.90;;;;;;5003443;28;19916;-81
2021/12/02 01:49:41;;;;;;;;;;;5.00;99.90;;;;;;4992628;28;19910;-79
2021/12/02 01:52:11;;;;;;;;;;;5.00;99.90;;;;;;4996901;28;19934;-71
2021/12/02 01:54:43;;;;;;;;;;;5.00;99.90;;;;;;4984431;28;19910;-68
2021/12/02 01:57:16;;;;;;;;;;;5.00;99.90;;;;;;4997779;28;19982;-68
2021/12/02 01:59:48;;;;;;;;;;;5.00;99.90;;;;;;5003624;28;19922;-68
2021/12/02 02:02:19;;;;;;;;;;;4.90;99.90;;;;;;4997736;28;19910;-69
2021/12/02 02:04:47;;;;;;;;;;;4.80;99.90;;;;;;4967756;28;19910;-75
2021/12/02 02:07:15;;;;;;;;;;;4.70;99.90;;;;;;4984122;28;19946;-69
2021/12/02 02:09:42;;;;;;;;;;;4.60;99.90;;;;;;4984085;28;19911;-71
2021/12/02 02:12:10;;;;;;;;;;;4.50;99.90;;;;;;4993963;28;19934;-74
2021/12/02 02:14:37;;;;;;;;;;;4.50;99.90;;;;;;5003225;28;19973;-75
2021/12/02 02:17:10;;;;;;;;;;;4.50;99.90;;;;;;5003083;28;19934;-70
2021/12/02 02:19:38;;;;;;;;;;;4.50;99.90;;;;;;5003322;28;19917;-71
2021/12/02 02:22:06;;;;;;;;;;;4.50;99.90;;;;;;4984561;28;19934;-76
2021/12/02 02:24:33;;;;;;;;;;;4.50;99.90;;;;;;4983899;28;19926;-80
2021/12/02 02:27:00;;;;;;;;;;;4.50;99.90;;;;;;4982995;28;19934;-80
2021/12/02 02:29:27;;;;;;;;;;;4.40;99.90;;;;;;5000590;28;19926;-80
2021/12/02 02:31:54;;;;;;;;;;;4.50;99.90;;;;;;4994234;28;19949;-79
2021/12/02 02:34:22;;;;;;;;;;;4.50;99.90;;;;;;4986391;28;19910;-80
2021/12/02 02:36:54;;;;;;;;;;;4.50;99.90;;;;;;4990494;28;19934;-75
2021/12/02 02:39:23;;;;;;;;;;;4.50;99.90;;;;;;4975622;28;19917;-75
2021/12/02 02:41:55;;;;;;;;;;;4.50;99.90;;;;;;4987865;28;19918;-71
2021/12/02 02:46:58;;;;;;;;;;;4.60;99.90;;;;;;4994086;23;19915;-83
2021/12/02 02:49:25;;;;;;;;;;;4.80;99.90;;;;;;4991202;28;19932;-81
2021/12/02 02:51:52;;;;;;;;;;;4.60;99.90;;;;;;4979560;28;19922;-82
2021/12/02 02:54:20;;;;;;;;;;;4.60;99.90;;;;;;4983808;28;19978;-82
2021/12/02 02:56:53;;;;;;;;;;;4.40;99.90;;;;;;4972342;28;19985;-82
2021/12/02 02:59:27;;;;;;;;;;;4.40;99.90;;;;;;4985166;28;19945;-81
2021/12/02 03:02:04;;;;;;;;;;;4.20;99.90;;;;;;4978753;28;19926;-83
2021/12/02 03:04:37;;;;;;;;;;;4.10;99.90;;;;;;4998700;28;19964;-82
2021/12/02 03:07:09;;;;;;;;;;;4.20;99.90;;;;;;4992471;28;19926;-83
2021/12/02 03:09:49;;;;;;;;;;;4.20;99.90;;;;;;4970994;28;19968;-81
2021/12/02 03:12:24;;;;;;;;;;;4.20;99.90;;;;;;4979595;28;19910;-81
2021/12/02 03:17:35;;;;;;;;;;;4.20;99.90;;;;;;4989729;28;19972;-81
2021/12/02 03:20:03;;;;;;;;;;;4.20;99.90;;;;;;4994609;28;19910;-81
2021/12/02 03:22:30;;;;;;;;;;;4.20;99.90;;;;;;4999940;28;19957;-82
2021/12/02 03:24:57;;;;;;;;;;;4.20;99.90;;;;;;5000212;28;19926;-80
2021/12/02 03:27:26;;;;;;;;;;;4.30;99.90;;;;;;4998833;28;19938;-84
2021/12/02 03:29:53;;;;;;;;;;;4.30;99.90;;;;;;4982588;28;19929;-82
2021/12/02 03:32:20;;;;;;;;;;;4.30;99.90;;;;;;4994249;28;19933;-82
2021/12/02 03:34:47;;;;;;;;;;;4.20;99.90;;;;;;4991007;28;19917;-82
2021/12/02 03:37:14;;;;;;;;;;;4.10;99.90;;;;;;4990153;28;19934;-84
2021/12/02 03:39:41;;;;;;;;;;;4.10;99.90;;;;;;4991045;28;19914;-83
2021/12/02 03:42:08;;;;;;;;;;;4.00;99.90;;;;;;4998355;28;19927;-79
2021/12/02 03:44:37;;;;;;;;;;;4.10;99.90;;;;;;5001319;28;19910;-74
2021/12/02 03:47:04;;;;;;;;;;;4.00;99.90;;;;;;4992286;28;19915;-77
2021/12/02 03:49:31;;;;;;;;;;;4.00;99.90;;;;;;4989880;28;19927;-83
2021/12/02 03:51:58;;;;;;;;;;;4.00;99.90;;;;;;4988654;28;19911;-81
2021/12/02 03:54:25;;;;;;;;;;;3.90;99.90;;;;;;4975162;28;19934;-83
2021/12/02 03:56:52;;;;;;;;;;;3.70;99.90;;;;;;4990098;28;19926;-77
2021/12/02 03:59:19;;;;;;;;;;;3.80;99.90;;;;;;4990868;28;19910;-78
2021/12/02 04:01:47;;;;;;;;;;;3.70;99.90;;;;;;4990889;28;19929;-85
2021/12/02 04:04:15;;;;;;;;;;;3.70;99.90;;;;;;4992457;28;19910;-82
2021/12/02 04:06:42;;;;;;;;;;;3.60;99.90;;;;;;4992333;28;19976;-82
2021/12/02 04:09:13;;;;;;;;;;;3.60;99.90;;;;;;4995391;28;19922;-80
2021/12/02 04:11:43;;;;;;;;;;;3.60;99.90;;;;;;4983833;28;19922;-81
2021/12/02 04:14:17;;;;;;;;;;;3.70;99.90;;;;;;4992830;28;19914;-82
2021/12/02 04:16:52;;;;;;;;;;;3.70;99.90;;;;;;4981958;28;19926;-79
2021/12/02 04:19:20;;;;;;;;;;;3.70;99.90;;;;;;4983194;28;19965;-79
2021/12/02 04:21:47;;;;;;;;;;;3.70;99.90;;;;;;4984360;28;19990;-80
2021/12/02 04:24:16;;;;;;;;;;;3.70;99.90;;;;;;4981030;28;19954;-80
2021/12/02 04:26:45;;;;;;;;;;;3.60;99.90;;;;;;4963353;28;19930;-81
2021/12/02 04:29:13;;;;;;;;;;;3.60;99.90;;;;;;4977640;28;19926;-80
2021/12/02 04:31:43;;;;;;;;;;;3.50;99.90;;;;;;4987302;28;19972;-80
2021/12/02 04:34:10;;;;;;;;;;;3.60;99.90;;;;;;4973152;28;19933;-80
2021/12/02 04:36:38;;;;;;;;;;;3.60;99.90;;;;;;4982871;28;19980;-79
2021/12/02 04:39:05;;;;;;;;;;;3.50;99.90;;;;;;4987205;28;19933;-79
2021/12/02 04:41:31;;;;;;;;;;;3.50;99.90;;;;;;4982600;28;19946;-81
2021/12/02 04:43:58;;;;;;;;;;;3.50;99.90;;;;;;4969432;29;19926;-80
2021/12/02 04:46:25;;;;;;;;;;;3.50;99.90;;;;;;4984884;28;19910;-81
2021/12/02 04:48:51;;;;;;;;;;;3.40;99.90;;;;;;4992385;28;19948;-80
2021/12/02 04:51:18;;;;;;;;;;;3.40;99.90;;;;;;4995292;28;19938;-82
2021/12/02 04:53:46;;;;;;;;;;;3.30;99.90;;;;;;4994565;28;19961;-81
2021/12/02 04:56:13;;;;;;;;;;;3.30;99.90;;;;;;4999405;28;19926;-81
2021/12/02 04:58:39;;;;;;;;;;;3.20;99.90;;;;;;4996914;28;19926;-80
2021/12/02 05:01:06;;;;;;;;;;;3.20;99.90;;;;;;4982820;28;19949;-80
2021/12/02 05:03:32;;;;;;;;;;;3.20;99.90;;;;;;4989269;28;19997;-81
2021/12/02 05:05:59;;;;;;;;;;;3.30;99.90;;;;;;4989509;28;19927;-77
2021/12/02 05:08:26;;;;;;;;;;;3.40;99.90;;;;;;4979859;28;19969;-81
2021/12/02 05:10:54;;;;;;;;;;;3.50;99.90;;;;;;4991842;28;19917;-81
2021/12/02 05:13:20;;;;;;;;;;;3.70;99.90;;;;;;4989378;28;19930;-81
2021/12/02 05:15:47;;;;;;;;;;;3.80;99.90;;;;;;4996544;28;19922;-80
2021/12/02 05:18:14;;;;;;;;;;;3.80;99.90;;;;;;4980551;28;19926;-81
2021/12/02 05:20:40;;;;;;;;;;;3.80;99.90;;;;;;4987143;28;19922;-81
2021/12/02 05:23:07;;;;;;;;;;;3.70;99.90;;;;;;4993930;28;19957;-81
2021/12/02 05:25:34;;;;;;;;;;;3.60;99.90;;;;;;4990205;28;19910;-81
2021/12/02 05:28:02;;;;;;;;;;;3.50;99.90;;;;;;4987252;28;19972;-81
2021/12/02 05:30:28;;;;;;;;;;;3.40;99.90;;;;;;4963529;28;19973;-81
2021/12/02 05:32:55;;;;;;;;;;;3.30;99.90;;;;;;4984979;28;19993;-81
2021/12/02 05:35:22;;;;;;;;;;;3.20;99.90;;;;;;4993825;28;19969;-82
2021/12/02 05:37:48;;;;;;;;;;;3.20;99.90;;;;;;4996569;28;19911;-84
2021/12/02 05:40:15;;;;;;;;;;;3.20;99.90;;;;;;4973446;28;19942;-76
2021/12/02 05:42:42;;;;;;;;;;;3.10;99.90;;;;;;4979545;28;19966;-76
2021/12/02 05:45:10;;;;;;;;;;;3.10;99.90;;;;;;4993356;28;19967;-79
2021/12/02 05:47:37;;;;;;;;;;;3.00;99.90;;;;;;4998514;28;19942;-84
2021/12/02 05:50:04;;;;;;;;;;;2.90;99.90;;;;;;4980014;28;19957;-79
2021/12/02 05:52:31;;;;;;;;;;;2.90;99.90;;;;;;4992527;28;19934;-82
2021/12/02 05:54:58;;;;;;;;;;;2.80;99.90;;;;;;4983190;28;19946;-78
2021/12/02 05:57:24;;;;;;;;;;;2.80;99.90;;;;;;4979610;28;20032;-78
2021/12/02 06:02:21;;;;;;;;;;;2.60;99.90;;;;;;5798213;23;19910;-81
2021/12/02 06:04:51;;;;;;;;;;;2.60;99.90;;;;;;4994888;28;19917;-77
2021/12/02 06:07:18;;;;;;;;;;;2.50;99.90;;;;;;4999552;28;19910;-79
2021/12/02 06:09:45;;;;;;;;;;;2.50;99.90;;;;;;4998488;28;19932;-81
2021/12/02 06:12:12;;;;;;;;;;;2.50;99.90;;;;;;4977747;29;19926;-80
2021/12/02 06:14:39;;;;;;;;;;;2.60;99.90;;;;;;4995532;28;19926;-83
2021/12/02 06:17:05;;;;;;;;;;;2.70;99.90;;;;;;4997045;28;19926;-79
2021/12/02 06:19:33;;;;;;;;;;;2.80;99.90;;;;;;4974221;28;19961;-80
2021/12/02 06:22:00;;;;;;;;;;;2.90;99.90;;;;;;4975766;28;20017;-79
2021/12/02 06:24:30;;;;;;;;;;;2.90;99.90;;;;;;4978487;28;20009;-79
2021/12/02 06:26:57;;;;;;;;;;;3.00;99.90;;;;;;4976165;28;19942;-80
2021/12/02 06:29:24;;;;;;;;;;;3.10;99.90;;;;;;4982297;28;19932;-80
2021/12/02 06:31:51;;;;;;;;;;;3.10;99.90;;;;;;4981045;28;19937;-80
2021/12/02 06:34:18;;;;;;;;;;;3.20;99.90;;;;;;4969998;28;19930;-79
2021/12/02 06:36:46;;;;;;;;;;;3.20;99.90;;;;;;4968000;28;20036;-79
2021/12/02 06:39:13;;;;;;;;;;;3.20;99.90;;;;;;4970420;28;19926;-79
2021/12/02 06:41:40;;;;;;;;;;;3.30;99.90;;;;;;4968501;28;19930;-79
2021/12/02 06:44:07;;;;;;;;;;;3.30;99.90;;;;;;4961739;28;19954;-80
2021/12/02 06:46:33;;;;;;;;;;;3.30;99.90;;;;;;4962206;28;19941;-79
2021/12/02 06:49:00;;;;;;;;;;;3.30;99.90;;;;;;4967926;28;20021;-80
2021/12/02 06:51:28;;;;;;;;;;;3.30;99.90;;;;;;4974809;28;19942;-80
2021/12/02 06:53:56;;;;;;;;;;;3.10;99.90;;;;;;4965799;28;19934;-79
2021/12/02 06:56:23;;;;;;;;;;;3.00;99.90;;;;;;4964999;28;19934;-79
2021/12/02 06:58:49;;;;;;;;;;;2.90;99.90;;;;;;4966060;28;20042;-78
2021/12/02 07:01:16;;;;;;;;;;;3.00;99.90;;;;;;4965819;28;19977;-79
2021/12/02 07:03:43;;;;;;;;;;;3.10;99.90;;;;;;4969479;28;20025;-79
2021/12/02 07:06:09;;;;;;;;;;;3.10;99.90;;;;;;4968204;28;20367;-80
2021/12/02 07:08:36;;;;;;;;;;;3.20;99.90;;;;;;4978476;28;19976;-82
2021/12/02 07:11:08;;;;;;;;;;;3.20;99.90;;;;;;4963319;28;20005;-80
2021/12/02 07:13:36;;;;;;;;;;;3.10;99.90;;;;;;4967552;28;19926;-79
2021/12/02 07:16:03;;;;;;;;;;;2.90;99.90;;;;;;4960231;28;19941;-77
2021/12/02 07:18:35;;;;;;;;;;;2.40;99.90;;;;;;4965703;28;20025;-75
2021/12/02 07:21:02;;;;;;;;;;;2.00;99.90;;;;;;4957793;28;20000;-76
2021/12/02 07:23:28;;;;;;;;;;;1.80;99.90;;;;;;4963906;28;19937;-76
2021/12/02 07:25:58;;;;;;;;;;;1.40;99.90;;;;;;4956585;28;19940;-76
2021/12/02 07:28:26;;;;;;;;;;;1.20;99.90;;;;;;4966450;28;19934;-76
2021/12/02 07:30:54;;;;;;;;;;;1.20;99.90;;;;;;4963520;28;19930;-75
2021/12/02 07:33:21;;;;;;;;;;;1.20;99.90;;;;;;4958501;28;19926;-76
2021/12/02 07:35:48;;;;;;;;;;;1.20;99.90;;;;;;4965446;28;19926;-75
2021/12/02 07:38:15;;;;;;;;;;;1.10;99.90;;;;;;4967452;28;19937;-75
2021/12/02 07:40:41;;;;;;;;;;;1.10;99.90;;;;;;4961633;28;20523;-74
2021/12/02 07:43:08;;;;;;;;;;;1.20;99.90;;;;;;4962356;28;19926;-75
2021/12/02 07:45:36;;;;;;;;;;;1.40;99.90;;;;;;4964971;28;20339;-74
2021/12/02 07:48:04;;;;;;;;;;;1.50;99.90;;;;;;4958932;28;19930;-75
2021/12/02 07:50:31;;;;;;;;;;;1.40;99.90;;;;;;4957613;28;19926;-74
2021/12/02 07:53:00;;;;;;;;;;;1.50;99.90;;;;;;4969811;28;19974;-75
2021/12/02 07:55:29;;;;;;;;;;;1.70;99.90;;;;;;4960380;28;19933;-75
2021/12/02 07:57:55;;;;;;;;;;;1.70;99.90;;;;;;4960339;28;20569;-75
2021/12/02 08:00:23;;;;;;;;;;;1.70;99.90;;;;;;4965792;28;19927;-75
2021/12/02 08:02:52;;;;;;;;;;;1.70;99.90;;;;;;4963028;28;20013;-75
2021/12/02 08:05:21;;;;;;;;;;;1.60;99.90;;;;;;4963026;28;20431;-77
2021/12/02 08:07:48;;;;;;;;;;;1.60;99.90;;;;;;4963115;28;20113;-77
2021/12/02 08:10:15;;;;;;;;;;;1.60;99.90;;;;;;4968071;28;19977;-79
2021/12/02 08:12:47;;;;;;;;;;;1.60;99.90;;;;;;4971592;28;20021;-77
2021/12/02 08:15:14;;;;;;;;;;;1.60;99.90;;;;;;4958529;28;20017;-76
2021/12/02 08:17:41;;;;;;;;;;;1.70;99.90;;;;;;4964813;28;19953;-79
2021/12/02 08:20:10;;;;;;;;;;;1.70;99.90;;;;;;4971493;28;19934;-78
2021/12/02 08:22:37;;;;;;;;;;;1.50;99.90;;;;;;4977870;28;20004;-80
2021/12/02 08:25:04;;;;;;;;;;;1.50;99.90;;;;;;4963433;28;19958;-77
2021/12/02 08:27:31;;;;;;;;;;;1.40;99.90;;;;;;4957068;28;19940;-77
2021/12/02 08:29:58;;;;;;;;;;;1.40;99.90;;;;;;4961768;28;19927;-78
2021/12/02 08:32:25;;;;;;;;;;;1.50;99.90;;;;;;4964376;28;19981;-77
2021/12/02 08:34:54;;;;;;;;;;;1.50;99.90;;;;;;4959692;28;19933;-77
2021/12/02 08:37:22;;;;;;;;;;;1.60;99.90;;;;;;4961517;28;19934;-75
2021/12/02 08:39:49;;;;;;;;;;;1.60;99.90;;;;;;4961056;28;19989;-77
2021/12/02 08:42:16;;;;;;;;;;;1.70;99.90;;;;;;4965847;28;19965;-80
2021/12/02 08:44:44;;;;;;;;;;;1.70;99.90;;;;;;4973523;28;19977;-79
2021/12/02 08:47:12;;;;;;;;;;;1.80;99.90;;;;;;4959167;28;19927;-78
2021/12/02 08:49:38;;;;;;;;;;;1.90;99.90;;;;;;4966891;28;19932;-78
2021/12/02 08:52:05;;;;;;;;;;;1.90;99.90;;;;;;4958192;28;20025;-76
2021/12/02 08:54:33;;;;;;;;;;;1.90;99.90;;;;;;4958637;28;19926;-79
2021/12/02 08:57:00;;;;;;;;;;;1.90;99.90;;;;;;4966270;28;19933;-76
2021/12/02 08:59:28;;;;;;;;;;;1.90;99.90;;;;;;4964862;28;21567;-76
2021/12/02 09:01:55;;;;;;;;;;;1.90;99.90;;;;;;4960340;28;20441;-76
2021/12/02 09:04:22;;;;;;;;;;;1.90;99.90;;;;;;4956021;28;20449;-76
2021/12/02 09:06:49;;;;;;;;;;;1.80;99.90;;;;;;4956702;28;19994;-76
2021/12/02 09:09:15;;;;;;;;;;;1.80;99.90;;;;;;4958576;28;19981;-77
2021/12/02 09:11:43;;;;;;;;;;;1.80;99.90;;;;;;4962966;28;20006;-76
2021/12/02 09:14:10;;;;;;;;;;;1.90;99.90;;;;;;4959156;28;19926;-75
2021/12/02 09:16:37;;;;;;;;;;;2.00;99.90;;;;;;4955172;28;19927;-76
2021/12/02 09:19:04;;;;;;;;;;;2.10;99.90;;;;;;4959018;28;20487;-77
2021/12/02 09:21:30;;;;;;;;;;;2.20;99.90;;;;;;4966240;28;20017;-76
2021/12/02 09:23:57;;;;;;;;;;;2.30;99.90;;;;;;4960364;28;19933;-76
2021/12/02 09:26:24;;;;;;;;;;;2.40;99.90;;;;;;4954358;28;19933;-76
2021/12/02 09:28:54;;;;;;;;;;;2.40;99.90;;;;;;4959482;28;19926;-76
2021/12/02 09:31:21;;;;;;;;;;;2.30;99.90;;;;;;4963037;28;19962;-76
2021/12/02 09:33:48;;;;;;;;;;;2.30;99.90;;;;;;4958489;28;20404;-76
2021/12/02 09:36:15;;;;;;;;;;;2.30;99.90;;;;;;4963006;28;20359;-76
2021/12/02 09:38:43;;;;;;;;;;;2.30;99.90;;;;;;4962346;28;20005;-78
2021/12/02 09:41:09;;;;;;;;;;;2.30;99.90;;;;;;4962388;28;20347;-77
2021/12/02 09:43:36;;;;;;;;;;;2.50;99.90;;;;;;4961410;28;19932;-78
2021/12/02 09:46:04;;;;;;;;;;;2.40;99.90;;;;;;4964623;28;19933;-81
2021/12/02 09:48:31;;;;;;;;;;;2.30;99.90;;;;;;4984743;28;20025;-81
2021/12/02 09:51:04;;;;;;;;;;;2.20;99.90;;;;;;4985385;28;19927;-81
2021/12/02 09:53:35;;;;;;;;;;;2.10;99.90;;;;;;4969017;28;19981;-79
2021/12/02 09:56:10;;;;;;;;;;;2.00;99.90;;;;;;4968395;28;19926;-79
2021/12/02 09:58:37;;;;;;;;;;;2.00;99.90;;;;;;4965783;28;19926;-79
2021/12/02 10:01:08;;;;;;;;;;;1.90;99.90;;;;;;4965492;28;20467;-77
2021/12/02 10:03:38;;;;;;;;;;;1.90;99.90;;;;;;4967712;28;20441;-76
2021/12/02 10:06:06;;;;;;;;;;;2.00;99.90;;;;;;4961803;28;19926;-78
2021/12/02 10:08:38;;;;;;;;;;;2.10;99.90;;;;;;4960249;28;20276;-76
2021/12/02 10:11:06;;;;;;;;;;;2.00;99.90;;;;;;4961881;28;19927;-78
2021/12/02 10:13:37;;;;;;;;;;;1.70;99.90;;;;;;4969318;28;19933;-79
2021/12/02 10:16:07;;;;;;;;;;;1.60;99.90;;;;;;4969545;28;20347;-78
2021/12/02 10:18:43;;;;;;;;;;;1.50;99.90;;;;;;4975657;28;19930;-81
2021/12/02 10:21:16;;;;;;;;;;;1.50;99.90;;;;;;4984007;28;19926;-80
2021/12/02 10:23:46;;;;;;;;;;;1.50;99.90;;;;;;4994067;28;19926;-81
2021/12/02 10:26:13;;;;;;;;;;;1.50;99.90;;;;;;4969196;28;20306;-78
2021/12/02 10:28:42;;;;;;;;;;;1.60;99.90;;;;;;4968251;28;19934;-78
2021/12/02 10:31:11;;;;;;;;;;;1.60;99.90;;;;;;4977269;28;19933;-79
2021/12/02 10:33:39;;;;;;;;;;;1.60;99.90;;;;;;4969977;28;20009;-79
2021/12/02 10:36:06;;;;;;;;;;;1.60;99.90;;;;;;4974481;28;19970;-78
2021/12/02 10:38:34;;;;;;;;;;;1.70;99.90;;;;;;4967475;28;20021;-77
2021/12/02 10:41:02;;;;;;;;;;;1.80;99.90;;;;;;4970842;28;19958;-76
2021/12/02 10:43:28;;;;;;;;;;;1.80;99.90;;;;;;4965627;28;19926;-78
2021/12/02 10:46:10;;;;;;;;;;;1.90;99.90;;;;;;4970476;28;19930;-78
2021/12/02 10:48:46;;;;;;;;;;;1.90;99.90;;;;;;4968193;28;19930;-78
2021/12/02 10:51:33;;;;;;;;;;;2.00;99.90;;;;;;4967797;28;20634;-78
2021/12/02 10:54:00;;;;;;;;;;;2.00;99.90;;;;;;4970299;28;19997;-80
2021/12/02 10:56:31;;;;;;;;;;;2.00;99.90;;;;;;4961460;28;19932;-78
2021/12/02 10:58:58;;;;;;;;;;;2.00;99.90;;;;;;4968058;28;19968;-77
2021/12/02 11:01:37;;;;;;;;;;;2.00;99.90;;;;;;4968824;28;19926;-80
2021/12/02 11:04:06;;;;;;;;;;;2.00;99.90;;;;;;4961972;28;19937;-77
2021/12/02 11:06:42;;;;;;;;;;;2.00;99.90;;;;;;4973684;28;19926;-76
2021/12/02 11:09:23;;;;;;;;;;;2.10;99.90;;;;;;4963980;28;20020;-76
2021/12/02 11:12:04;;;;;;;;;;;2.20;99.90;;;;;;4965478;28;20318;-77
2021/12/02 11:14:30;;;;;;;;;;;2.20;99.90;;;;;;4958131;28;19978;-76
2021/12/02 11:17:06;;;;;;;;;;;2.20;99.90;;;;;;4965732;28;19962;-78
2021/12/02 11:19:34;;;;;;;;;;;2.30;99.90;;;;;;4962821;28;19994;-78
2021/12/02 11:22:08;;;;;;;;;;;2.40;99.90;;;;;;4971308;28;19925;-79
2021/12/02 11:24:35;;;;;;;;;;;2.50;99.90;;;;;;4990790;28;19970;-77
2021/12/02 11:27:09;;;;;;;;;;;2.60;99.90;;;;;;4974322;23;19926;-77
2021/12/02 11:29:54;;;;;;;;;;;2.60;99.90;;;;;;4950403;29;19933;-77
2021/12/02 11:32:38;;;;;;;;;;;2.70;99.90;;;;;;4952228;29;19971;-76
2021/12/02 11:35:08;;;;;;;;;;;2.60;99.90;;;;;;4952824;29;19927;-76
2021/12/02 11:37:36;;;;;;;;;;;2.50;99.90;;;;;;4954193;29;20009;-79
2021/12/02 11:40:04;;;;;;;;;;;2.50;99.90;;;;;;4951297;29;20013;-78
2021/12/02 11:42:31;;;;;;;;;;;2.50;99.90;;;;;;4951518;28;20403;-77
2021/12/02 11:44:58;;;;;;;;;;;2.40;99.90;;;;;;4955024;29;19968;-77
2021/12/02 11:47:25;;;;;;;;;;;2.30;99.90;;;;;;4949214;29;19935;-77
2021/12/02 11:49:51;;;;;;;;;;;2.20;99.90;;;;;;4950407;29;19926;-76
2021/12/02 11:52:19;;;;;;;;;;;2.10;99.90;;;;;;4948149;29;20033;-79
2021/12/02 11:54:46;;;;;;;;;;;2.10;99.90;;;;;;4949454;28;19934;-79
2021/12/02 11:57:13;;;;;;;;;;;2.20;99.90;;;;;;4945306;28;19926;-79
2021/12/02 11:59:40;;;;;;;;;;;2.30;99.90;;;;;;4955654;28;20037;-78
2021/12/02 12:02:07;;;;;;;;;;;2.50;99.90;;;;;;4958575;28;19982;-79
2021/12/02 12:04:38;;;;;;;;;;;2.60;99.90;;;;;;4953715;29;20029;-78
2021/12/02 12:07:12;;;;;;;;;;;2.70;99.90;;;;;;4948641;29;19934;-75
2021/12/02 12:09:40;;;;;;;;;;;2.80;99.90;;;;;;4947996;28;19933;-77
2021/12/02 12:12:07;;;;;;;;;;;2.90;99.90;;;;;;4951029;28;19969;-77
2021/12/02 12:14:35;;;;;;;;;;;3.00;99.90;;;;;;4956227;29;19930;-79
2021/12/02 12:17:06;;;;;;;;;;;3.10;99.90;;;;;;4956020;29;20382;-79
2021/12/02 12:19:38;;;;;;;;;;;3.20;99.90;;;;;;4954971;29;19950;-78
2021/12/02 12:22:06;;;;;;;;;;;3.40;99.90;;;;;;4949767;29;21128;-78
2021/12/02 12:24:41;;;;;;;;;;;3.50;99.90;;;;;;4949325;29;19927;-78
2021/12/02 12:27:12;;;;;;;;;;;3.50;99.90;;;;;;4962533;29;19993;-79
2021/12/02 12:29:38;;;;;;;;;;;3.50;99.90;;;;;;4955253;29;20450;-79
2021/12/02 12:35:20;;;;;;;;;;;3.70;99.90;;;;;;4961747;28;19926;-77
2021/12/02 12:37:58;;;;;;;;;;;3.80;99.90;;;;;;4962785;29;19958;-79
2021/12/02 12:40:31;;;;;;;;;;;3.80;99.90;;;;;;4956239;29;20394;-77
2021/12/02 12:43:21;;;;;;;;;;;3.90;99.90;;;;;;4949846;29;19930;-80
2021/12/02 12:45:48;;;;;;;;;;;3.90;99.90;;;;;;4962123;29;19934;-79
2021/12/02 12:48:28;;;;;;;;;;;4.00;99.90;;;;;;4960210;28;19965;-80
2021/12/02 12:51:08;;;;;;;;;;;4.00;99.90;;;;;;4963875;29;20445;-78
2021/12/02 12:53:36;;;;;;;;;;;4.00;99.90;;;;;;4976101;28;19937;-76
2021/12/02 12:56:06;;;;;;;;;;;4.10;99.90;;;;;;4973074;28;19934;-81
2021/12/02 12:58:33;;;;;;;;;;;4.30;99.90;;;;;;4976862;28;19914;-74
2021/12/02 13:01:01;;;;;;;;;;;4.70;99.90;;;;;;4981202;28;19918;-70
2021/12/02 13:06:39;;;;;;;;;;;4.90;99.90;;;;;;4953111;28;19931;-75
2021/12/02 13:09:06;;;;;;;;;;;4.90;99.90;;;;;;4946246;28;20391;-77
2021/12/02 13:11:34;;;;;;;;;;;4.60;99.90;;;;;;4948430;29;19926;-77
2021/12/02 13:14:02;;;;;;;;;;;3.90;99.90;;;;;;4948818;29;19969;-76
2021/12/02 13:16:33;;;;;;;;;;;3.50;99.90;;;;;;4949840;29;19998;-77
2021/12/02 13:19:01;;;;;;;;;;;3.30;99.90;;;;;;4958628;29;20013;-80
2021/12/02 13:21:32;;;;;;;;;;;3.20;99.90;;;;;;4968778;28;19968;-81
2021/12/02 13:24:00;;;;;;;;;;;3.00;99.90;;;;;;4975127;28;19926;-80
2021/12/02 13:26:28;;;;;;;;;;;3.10;99.90;;;;;;4976822;29;19927;-81
2021/12/02 13:28:58;;;;;;;;;;;3.10;99.90;;;;;;4967433;28;19958;-78
2021/12/02 13:31:25;;;;;;;;;;;3.20;99.90;;;;;;4955526;29;20013;-78
2021/12/02 13:33:53;;;;;;;;;;;3.30;99.90;;;;;;4957901;29;19994;-80
2021/12/02 13:36:21;;;;;;;;;;;3.30;99.90;;;;;;4952540;29;19927;-77
2021/12/02 13:39:02;;;;;;;;;;;3.20;99.90;;;;;;4951595;29;19930;-77
2021/12/02 13:41:28;;;;;;;;;;;3.20;99.90;;;;;;4949255;29;19969;-78
2021/12/02 13:43:58;;;;;;;;;;;3.10;99.90;;;;;;4950692;29;19970;-77
2021/12/02 13:46:33;;;;;;;;;;;3.10;99.90;;;;;;4955830;29;19933;-79
2021/12/02 13:49:02;;;;;;;;;;;3.10;99.90;;;;;;4956178;29;19977;-78
2021/12/02 13:54:26;;;;;;;;;;;3.00;99.90;;;;;;4930009;28;19927;-76
2021/12/02 13:56:54;;;;;;;;;;;3.00;99.90;;;;;;4957585;29;19926;-79
2021/12/02 13:59:25;;;;;;;;;;;2.90;99.90;;;;;;4963312;29;20384;-79
2021/12/02 14:01:53;;;;;;;;;;;2.90;99.90;;;;;;4967784;29;19953;-80
2021/12/02 14:04:19;;;;;;;;;;;2.90;99.90;;;;;;4975311;29;20025;-79
2021/12/02 14:06:46;;;;;;;;;;;2.80;99.90;;;;;;4973097;28;19911;-79
2021/12/02 14:09:13;;;;;;;;;;;2.90;99.90;;;;;;4975126;28;20306;-76
2021/12/02 14:11:40;;;;;;;;;;;2.90;99.90;;;;;;4953741;28;19926;-77
2021/12/02 14:14:07;;;;;;;;;;;2.90;99.90;;;;;;4959441;29;19927;-79
2021/12/02 14:16:35;;;;;;;;;;;2.90;99.90;;;;;;4954982;29;20017;-78
2021/12/02 14:19:08;;;;;;;;;;;2.90;99.90;;;;;;4957638;29;19930;-77
2021/12/02 14:21:35;;;;;;;;;;;3.00;99.90;;;;;;4954030;29;20013;-77
2021/12/02 14:24:02;;;;;;;;;;;3.00;99.90;;;;;;4960429;29;20248;-76
2021/12/02 14:26:30;;;;;;;;;;;3.00;99.90;;;;;;4947379;29;19933;-74
2021/12/02 14:28:58;;;;;;;;;;;3.10;99.90;;;;;;4954327;29;19981;-76
2021/12/02 14:31:30;;;;;;;;;;;3.20;99.90;;;;;;4947882;29;19926;-74
2021/12/02 14:33:58;;;;;;;;;;;3.20;99.90;;;;;;4949821;28;19973;-75
2021/12/02 14:36:26;;;;;;;;;;;3.20;99.90;;;;;;4949410;29;22284;-75
2021/12/02 14:38:59;;;;;;;;;;;3.20;99.90;;;;;;4954097;29;19950;-80
2021/12/02 14:41:27;;;;;;;;;;;3.10;99.90;;;;;;4954983;29;19926;-80
2021/12/02 14:43:55;;;;;;;;;;;3.00;99.90;;;;;;4947922;29;19926;-78
2021/12/02 14:46:23;;;;;;;;;;;3.00;99.90;;;;;;4951990;29;19949;-77
2021/12/02 14:49:07;;;;;;;;;;;3.00;99.90;;;;;;4950625;29;19926;-76
2021/12/02 14:51:55;;;;;;;;;;;3.00;99.90;;;;;;4953947;28;19934;-78
2021/12/02 14:54:29;;;;;;;;;;;3.00;99.90;;;;;;4954070;29;19927;-78
2021/12/02 14:56:56;;;;;;;;;;;3.10;99.90;;;;;;4951614;28;20273;-77
2021/12/02 14:59:26;;;;;;;;;;;3.10;99.90;;;;;;4949953;29;19926;-78
2021/12/02 15:02:10;;;;;;;;;;;3.00;99.90;;;;;;4951603;29;19933;-79
2021/12/02 15:04:40;;;;;;;;;;;3.00;99.90;;;;;;4947331;29;19934;-78
2021/12/02 15:07:11;;;;;;;;;;;3.00;99.90;;;;;;4951032;29;19977;-78
2021/12/02 15:09:39;;;;;;;;;;;3.00;99.90;;;;;;4958312;29;20002;-79
2021/12/02 15:12:11;;;;;;;;;;;3.00;99.90;;;;;;4947705;29;19965;-78
2021/12/02 15:14:38;;;;;;;;;;;3.00;99.90;;;;;;4967421;28;20013;-79
2021/12/02 15:17:06;;;;;;;;;;;2.90;99.90;;;;;;4971809;28;19972;-74
2021/12/02 15:19:34;;;;;;;;;;;3.00;99.90;;;;;;4972586;28;19942;-74
2021/12/02 15:22:02;;;;;;;;;;;3.00;99.90;;;;;;4975597;28;19933;-80
2021/12/02 15:24:39;;;;;;;;;;;2.90;99.90;;;;;;4976594;28;19934;-80